sensor_id;sensor_type;location;lat;lon;timestamp;temperature;humidity
69679;DHT22;56915;52.046;4.854;2022-10-17T00:00:42;13.50;99.90
69679;DHT22;56915;52.046;4.854;2022-10-17T00:03:10;13.50;99.90
69679;DHT22;56915;52.046;4.854;2022-10-17T00:05:41;13.50;99.90
69679;DHT22;56915;52.046;4.854;2022-10-17T00:08:09;13.40;99.90
69679;DHT22;56915;52.046;4.854;2022-10-17T00:10:37;13.40;99.90
69679;DHT22;56915;52.046;4.854;2022-10-17T00:13:04;13.40;99.90
69679;DHT22;56915;52.046;4.854;2022-10-17T00:15:31;13.30;99.90
69679;DHT22;56915;52.046;4.854;2022-10-17T00:17:58;13.30;99.90
69679;DHT22;56915;52.046;4.854;2022-10-17T00:20:25;13.30;99.90
69679;DHT22;56915;52.046;4.854;2022-10-17T00:22:52;13.20;99.90
69679;DHT22;56915;52.046;4.854;2022-10-17T00:25:19;13.20;99.90
69679;DHT22;56915;52.046;4.854;2022-10-17T00:27:46;13.20;99.90
69679;DHT22;56915;52.046;4.854;2022-10-17T00:30:14;13.20;99.90
69679;DHT22;56915;52.046;4.854;2022-10-17T00:32:41;13.20;99.90
69679;DHT22;56915;52.046;4.854;2022-10-17T00:35:09;13.20;99.90
69679;DHT22;56915;52.046;4.854;2022-10-17T00:37:35;13.20;99.90
69679;DHT22;56915;52.046;4.854;2022-10-17T00:40:04;13.10;99.90
69679;DHT22;56915;52.046;4.854;2022-10-17T00:42:31;13.10;99.90
69679;DHT22;56915;52.046;4.854;2022-10-17T00:47:27;13.10;99.90
69679;DHT22;56915;52.046;4.854;2022-10-17T00:49:54;13.10;99.90
69679;DHT22;56915;52.046;4.854;2022-10-17T00:52:24;13.20;99.90
69679;DHT22;56915;52.046;4.854;2022-10-17T00:54:59;13.20;99.90
69679;DHT22;56915;52.046;4.854;2022-10-17T00:57:28;13.20;99.90
69679;DHT22;56915;52.046;4.854;2022-10-17T00:59:58;13.20;99.90
69679;DHT22;56915;52.046;4.854;2022-10-17T01:02:27;13.30;99.90
69679;DHT22;56915;52.046;4.854;2022-10-17T01:04:56;13.30;99.90
69679;DHT22;56915;52.046;4.854;2022-10-17T01:07:26;13.30;99.90
69679;DHT22;56915;52.046;4.854;2022-10-17T01:10:00;13.30;99.90
69679;DHT22;56915;52.046;4.854;2022-10-17T01:18:22;13.30;99.90
69679;DHT22;56915;52.046;4.854;2022-10-17T01:21:20;13.40;99.90
69679;DHT22;56915;52.046;4.854;2022-10-17T01:26:55;13.40;99.90
69679;DHT22;56915;52.046;4.854;2022-10-17T01:32:46;13.40;99.90
69679;DHT22;56915;52.046;4.854;2022-10-17T01:35:41;13.40;99.90
69679;DHT22;56915;52.046;4.854;2022-10-17T01:40:51;13.30;99.90
69679;DHT22;56915;52.046;4.854;2022-10-17T01:43:45;13.30;99.90
69679;DHT22;56915;52.046;4.854;2022-10-17T01:46:36;13.30;99.90
69679;DHT22;56915;52.046;4.854;2022-10-17T01:49:05;13.30;99.90
69679;DHT22;56915;52.046;4.854;2022-10-17T01:52:37;13.30;99.90
69679;DHT22;56915;52.046;4.854;2022-10-17T01:54:39;13.40;99.90
69679;DHT22;56915;52.046;4.854;2022-10-17T01:59:59;13.40;99.90
69679;DHT22;56915;52.046;4.854;2022-10-17T02:02:29;13.50;99.90
69679;DHT22;56915;52.046;4.854;2022-10-17T02:04:56;13.50;99.90
69679;DHT22;56915;52.046;4.854;2022-10-17T02:07:23;13.60;99.90
69679;DHT22;56915;52.046;4.854;2022-10-17T02:09:51;13.60;99.90
69679;DHT22;56915;52.046;4.854;2022-10-17T02:12:54;13.70;99.90
69679;DHT22;56915;52.046;4.854;2022-10-17T02:18:45;13.80;99.90
69679;DHT22;56915;52.046;4.854;2022-10-17T02:21:46;13.80;99.90
69679;DHT22;56915;52.046;4.854;2022-10-17T02:24:23;13.80;99.90
69679;DHT22;56915;52.046;4.854;2022-10-17T02:27:07;13.90;99.90
69679;DHT22;56915;52.046;4.854;2022-10-17T02:30:05;13.90;99.90
69679;DHT22;56915;52.046;4.854;2022-10-17T02:32:39;13.90;99.90
69679;DHT22;56915;52.046;4.854;2022-10-17T02:35:14;13.90;99.90
69679;DHT22;56915;52.046;4.854;2022-10-17T02:37:44;13.90;99.90
69679;DHT22;56915;52.046;4.854;2022-10-17T02:40:12;13.90;99.90
69679;DHT22;56915;52.046;4.854;2022-10-17T02:42:43;13.90;99.90
69679;DHT22;56915;52.046;4.854;2022-10-17T02:45:12;14.00;99.90
69679;DHT22;56915;52.046;4.854;2022-10-17T02:48:02;14.00;99.90
69679;DHT22;56915;52.046;4.854;2022-10-17T02:53:14;14.20;99.90
69679;DHT22;56915;52.046;4.854;2022-10-17T02:55:50;14.20;99.90
69679;DHT22;56915;52.046;4.854;2022-10-17T02:58:24;14.30;99.90
69679;DHT22;56915;52.046;4.854;2022-10-17T03:00:52;14.30;99.90
69679;DHT22;56915;52.046;4.854;2022-10-17T03:03:26;14.40;99.90
69679;DHT22;56915;52.046;4.854;2022-10-17T03:05:53;14.40;99.90
69679;DHT22;56915;52.046;4.854;2022-10-17T03:08:21;14.50;99.90
69679;DHT22;56915;52.046;4.854;2022-10-17T03:10:49;14.50;99.90
69679;DHT22;56915;52.046;4.854;2022-10-17T03:13:17;14.50;99.90
69679;DHT22;56915;52.046;4.854;2022-10-17T03:15:44;14.60;99.90
69679;DHT22;56915;52.046;4.854;2022-10-17T03:18:11;14.60;99.90
69679;DHT22;56915;52.046;4.854;2022-10-17T03:20:37;14.60;99.90
69679;DHT22;56915;52.046;4.854;2022-10-17T03:23:04;14.60;99.90
69679;DHT22;56915;52.046;4.854;2022-10-17T03:25:31;14.70;99.90
69679;DHT22;56915;52.046;4.854;2022-10-17T03:27:58;14.70;99.90
69679;DHT22;56915;52.046;4.854;2022-10-17T03:30:27;14.70;99.90
69679;DHT22;56915;52.046;4.854;2022-10-17T03:32:56;14.70;99.90
69679;DHT22;56915;52.046;4.854;2022-10-17T03:35:23;14.70;99.90
69679;DHT22;56915;52.046;4.854;2022-10-17T03:37:51;14.80;99.90
69679;DHT22;56915;52.046;4.854;2022-10-17T03:40:18;14.80;99.90
69679;DHT22;56915;52.046;4.854;2022-10-17T03:42:45;14.80;99.90
69679;DHT22;56915;52.046;4.854;2022-10-17T03:45:12;14.80;99.90
69679;DHT22;56915;52.046;4.854;2022-10-17T03:47:39;14.80;99.90
69679;DHT22;56915;52.046;4.854;2022-10-17T03:50:06;14.70;99.90
69679;DHT22;56915;52.046;4.854;2022-10-17T03:52:33;14.70;99.90
69679;DHT22;56915;52.046;4.854;2022-10-17T03:55:00;14.60;99.90
69679;DHT22;56915;52.046;4.854;2022-10-17T03:57:26;14.60;99.90
69679;DHT22;56915;52.046;4.854;2022-10-17T03:59:54;14.60;99.90
69679;DHT22;56915;52.046;4.854;2022-10-17T04:02:20;14.60;99.90
69679;DHT22;56915;52.046;4.854;2022-10-17T04:04:47;14.50;99.90
69679;DHT22;56915;52.046;4.854;2022-10-17T04:07:14;14.50;99.90
69679;DHT22;56915;52.046;4.854;2022-10-17T04:09:41;14.60;99.90
69679;DHT22;56915;52.046;4.854;2022-10-17T04:12:08;14.60;99.90
69679;DHT22;56915;52.046;4.854;2022-10-17T04:14:36;14.60;99.90
69679;DHT22;56915;52.046;4.854;2022-10-17T04:17:03;14.60;99.90
69679;DHT22;56915;52.046;4.854;2022-10-17T04:19:30;14.60;99.90
69679;DHT22;56915;52.046;4.854;2022-10-17T04:21:57;14.60;99.90
69679;DHT22;56915;52.046;4.854;2022-10-17T04:24:24;14.60;99.90
69679;DHT22;56915;52.046;4.854;2022-10-17T04:26:51;14.60;99.90
69679;DHT22;56915;52.046;4.854;2022-10-17T04:29:19;14.70;99.90
69679;DHT22;56915;52.046;4.854;2022-10-17T04:31:46;14.70;99.90
69679;DHT22;56915;52.046;4.854;2022-10-17T04:34:12;14.70;99.90
69679;DHT22;56915;52.046;4.854;2022-10-17T04:36:40;14.70;99.90
69679;DHT22;56915;52.046;4.854;2022-10-17T04:39:06;14.70;99.90
69679;DHT22;56915;52.046;4.854;2022-10-17T04:41:34;14.70;99.90
69679;DHT22;56915;52.046;4.854;2022-10-17T04:44:00;14.80;99.90
69679;DHT22;56915;52.046;4.854;2022-10-17T04:46:27;14.80;99.90
69679;DHT22;56915;52.046;4.854;2022-10-17T04:48:54;14.80;99.90
69679;DHT22;56915;52.046;4.854;2022-10-17T04:51:21;14.90;99.90
69679;DHT22;56915;52.046;4.854;2022-10-17T04:53:52;14.90;99.90
69679;DHT22;56915;52.046;4.854;2022-10-17T04:56:20;14.90;99.90
69679;DHT22;56915;52.046;4.854;2022-10-17T04:58:48;14.80;99.90
69679;DHT22;56915;52.046;4.854;2022-10-17T05:01:20;14.80;99.90
69679;DHT22;56915;52.046;4.854;2022-10-17T05:03:48;14.80;99.90
69679;DHT22;56915;52.046;4.854;2022-10-17T05:06:17;14.80;99.90
69679;DHT22;56915;52.046;4.854;2022-10-17T05:08:45;14.80;99.90
69679;DHT22;56915;52.046;4.854;2022-10-17T05:11:22;14.80;99.90
69679;DHT22;56915;52.046;4.854;2022-10-17T05:13:54;14.90;99.90
69679;DHT22;56915;52.046;4.854;2022-10-17T05:16:21;14.90;99.90
69679;DHT22;56915;52.046;4.854;2022-10-17T05:18:49;15.00;99.90
69679;DHT22;56915;52.046;4.854;2022-10-17T05:21:19;15.00;99.90
69679;DHT22;56915;52.046;4.854;2022-10-17T05:23:46;15.00;99.90
69679;DHT22;56915;52.046;4.854;2022-10-17T05:26:13;15.00;99.90
69679;DHT22;56915;52.046;4.854;2022-10-17T05:28:40;15.10;99.90
69679;DHT22;56915;52.046;4.854;2022-10-17T05:31:09;15.10;99.90
69679;DHT22;56915;52.046;4.854;2022-10-17T05:33:37;15.10;99.90
69679;DHT22;56915;52.046;4.854;2022-10-17T05:36:05;15.10;99.90
69679;DHT22;56915;52.046;4.854;2022-10-17T05:38:32;15.10;99.90
69679;DHT22;56915;52.046;4.854;2022-10-17T05:41:04;15.20;99.90
69679;DHT22;56915;52.046;4.854;2022-10-17T05:43:32;15.20;99.90
69679;DHT22;56915;52.046;4.854;2022-10-17T05:46:03;15.20;99.90
69679;DHT22;56915;52.046;4.854;2022-10-17T05:48:30;15.10;99.90
69679;DHT22;56915;52.046;4.854;2022-10-17T05:51:04;15.20;99.90
69679;DHT22;56915;52.046;4.854;2022-10-17T05:53:32;15.10;99.90
69679;DHT22;56915;52.046;4.854;2022-10-17T05:56:01;15.20;99.90
69679;DHT22;56915;52.046;4.854;2022-10-17T05:58:29;15.10;99.90
69679;DHT22;56915;52.046;4.854;2022-10-17T06:01:16;15.10;99.90
69679;DHT22;56915;52.046;4.854;2022-10-17T06:03:43;15.10;99.90
69679;DHT22;56915;52.046;4.854;2022-10-17T06:06:12;15.10;99.90
69679;DHT22;56915;52.046;4.854;2022-10-17T06:08:39;15.10;99.90
69679;DHT22;56915;52.046;4.854;2022-10-17T06:11:06;15.10;99.90
69679;DHT22;56915;52.046;4.854;2022-10-17T06:13:36;15.10;99.90
69679;DHT22;56915;52.046;4.854;2022-10-17T06:16:04;15.10;99.90
69679;DHT22;56915;52.046;4.854;2022-10-17T06:18:32;15.20;99.90
69679;DHT22;56915;52.046;4.854;2022-10-17T06:21:03;15.10;99.90
69679;DHT22;56915;52.046;4.854;2022-10-17T06:23:30;15.20;99.90
69679;DHT22;56915;52.046;4.854;2022-10-17T06:26:03;15.20;99.90
69679;DHT22;56915;52.046;4.854;2022-10-17T06:28:32;15.30;99.90
69679;DHT22;56915;52.046;4.854;2022-10-17T06:31:06;15.30;99.90
69679;DHT22;56915;52.046;4.854;2022-10-17T06:33:34;15.30;99.90
69679;DHT22;56915;52.046;4.854;2022-10-17T06:36:01;15.30;99.90
69679;DHT22;56915;52.046;4.854;2022-10-17T06:38:28;15.40;99.90
69679;DHT22;56915;52.046;4.854;2022-10-17T06:41:14;15.40;99.90
69679;DHT22;56915;52.046;4.854;2022-10-17T06:43:42;15.40;99.90
69679;DHT22;56915;52.046;4.854;2022-10-17T06:46:16;15.50;99.90
69679;DHT22;56915;52.046;4.854;2022-10-17T06:48:44;15.50;99.90
69679;DHT22;56915;52.046;4.854;2022-10-17T06:51:11;15.50;99.90
69679;DHT22;56915;52.046;4.854;2022-10-17T06:53:47;15.50;99.90
69679;DHT22;56915;52.046;4.854;2022-10-17T06:56:13;15.60;99.90
69679;DHT22;56915;52.046;4.854;2022-10-17T06:58:40;15.60;99.90
69679;DHT22;56915;52.046;4.854;2022-10-17T07:01:09;15.60;99.90
69679;DHT22;56915;52.046;4.854;2022-10-17T07:03:37;15.60;99.90
69679;DHT22;56915;52.046;4.854;2022-10-17T07:06:04;15.60;99.90
69679;DHT22;56915;52.046;4.854;2022-10-17T07:08:31;15.70;99.90
69679;DHT22;56915;52.046;4.854;2022-10-17T07:10:58;15.70;99.90
69679;DHT22;56915;52.046;4.854;2022-10-17T07:13:25;15.70;99.90
69679;DHT22;56915;52.046;4.854;2022-10-17T07:15:51;15.80;99.90
69679;DHT22;56915;52.046;4.854;2022-10-17T07:18:18;15.80;99.90
69679;DHT22;56915;52.046;4.854;2022-10-17T07:20:52;15.80;99.90
69679;DHT22;56915;52.046;4.854;2022-10-17T07:23:20;15.90;99.90
69679;DHT22;56915;52.046;4.854;2022-10-17T07:25:48;15.90;99.90
69679;DHT22;56915;52.046;4.854;2022-10-17T07:28:15;15.90;99.90
69679;DHT22;56915;52.046;4.854;2022-10-17T07:30:42;16.00;99.90
69679;DHT22;56915;52.046;4.854;2022-10-17T07:33:09;16.00;99.90
69679;DHT22;56915;52.046;4.854;2022-10-17T07:35:37;16.10;99.90
69679;DHT22;56915;52.046;4.854;2022-10-17T07:38:06;16.10;99.90
69679;DHT22;56915;52.046;4.854;2022-10-17T07:40:33;16.20;99.90
69679;DHT22;56915;52.046;4.854;2022-10-17T07:43:00;16.30;99.90
69679;DHT22;56915;52.046;4.854;2022-10-17T07:45:27;16.40;99.90
69679;DHT22;56915;52.046;4.854;2022-10-17T07:47:57;16.50;99.90
69679;DHT22;56915;52.046;4.854;2022-10-17T07:50:24;16.50;99.90
69679;DHT22;56915;52.046;4.854;2022-10-17T07:52:51;16.50;99.90
69679;DHT22;56915;52.046;4.854;2022-10-17T07:55:18;16.50;99.90
69679;DHT22;56915;52.046;4.854;2022-10-17T07:57:44;16.50;99.90
69679;DHT22;56915;52.046;4.854;2022-10-17T08:00:13;16.50;99.90
69679;DHT22;56915;52.046;4.854;2022-10-17T08:02:41;16.50;99.90
69679;DHT22;56915;52.046;4.854;2022-10-17T08:05:08;16.50;99.90
69679;DHT22;56915;52.046;4.854;2022-10-17T08:07:34;16.50;99.90
69679;DHT22;56915;52.046;4.854;2022-10-17T08:10:01;16.50;99.90
69679;DHT22;56915;52.046;4.854;2022-10-17T08:12:28;16.40;99.90
69679;DHT22;56915;52.046;4.854;2022-10-17T08:14:59;16.40;99.90
69679;DHT22;56915;52.046;4.854;2022-10-17T08:17:26;16.40;99.90
69679;DHT22;56915;52.046;4.854;2022-10-17T08:19:53;16.40;99.90
69679;DHT22;56915;52.046;4.854;2022-10-17T08:22:19;16.40;99.90
69679;DHT22;56915;52.046;4.854;2022-10-17T08:24:46;16.40;99.90
69679;DHT22;56915;52.046;4.854;2022-10-17T08:27:13;16.40;99.90
69679;DHT22;56915;52.046;4.854;2022-10-17T08:29:40;16.40;99.90
69679;DHT22;56915;52.046;4.854;2022-10-17T08:32:07;16.50;99.90
69679;DHT22;56915;52.046;4.854;2022-10-17T08:34:35;16.40;99.90
69679;DHT22;56915;52.046;4.854;2022-10-17T08:37:02;16.50;99.90
69679;DHT22;56915;52.046;4.854;2022-10-17T08:39:29;16.50;99.90
69679;DHT22;56915;52.046;4.854;2022-10-17T08:45:23;16.60;99.90
69679;DHT22;56915;52.046;4.854;2022-10-17T08:47:45;16.60;99.90
69679;DHT22;56915;52.046;4.854;2022-10-17T08:50:35;16.60;99.90
69679;DHT22;56915;52.046;4.854;2022-10-17T08:55:49;16.60;99.90
69679;DHT22;56915;52.046;4.854;2022-10-17T08:58:23;16.70;99.90
69679;DHT22;56915;52.046;4.854;2022-10-17T09:01:39;16.70;99.90
69679;DHT22;56915;52.046;4.854;2022-10-17T09:04:41;16.70;99.90
69679;DHT22;56915;52.046;4.854;2022-10-17T09:15:39;16.80;99.90
69679;DHT22;56915;52.046;4.854;2022-10-17T09:20:53;16.90;99.90
69679;DHT22;56915;52.046;4.854;2022-10-17T09:23:31;17.00;99.90
69679;DHT22;56915;52.046;4.854;2022-10-17T09:26:00;17.10;99.90
69679;DHT22;56915;52.046;4.854;2022-10-17T09:31:15;17.20;99.90
69679;DHT22;56915;52.046;4.854;2022-10-17T09:33:45;17.20;99.90
69679;DHT22;56915;52.046;4.854;2022-10-17T09:36:28;17.30;99.90
69679;DHT22;56915;52.046;4.854;2022-10-17T09:39:09;17.40;99.90
69679;DHT22;56915;52.046;4.854;2022-10-17T09:41:52;17.40;99.90
69679;DHT22;56915;52.046;4.854;2022-10-17T09:44:39;17.50;99.90
69679;DHT22;56915;52.046;4.854;2022-10-17T09:47:36;17.50;99.90
69679;DHT22;56915;52.046;4.854;2022-10-17T09:50:15;17.50;99.90
69679;DHT22;56915;52.046;4.854;2022-10-17T09:52:43;17.40;99.90
69679;DHT22;56915;52.046;4.854;2022-10-17T09:55:21;17.40;99.90
69679;DHT22;56915;52.046;4.854;2022-10-17T09:57:58;17.40;99.90
69679;DHT22;56915;52.046;4.854;2022-10-17T10:00:32;17.40;99.90
69679;DHT22;56915;52.046;4.854;2022-10-17T10:03:19;17.40;99.90
69679;DHT22;56915;52.046;4.854;2022-10-17T10:06:05;17.30;99.90
69679;DHT22;56915;52.046;4.854;2022-10-17T10:08:51;17.30;99.90
69679;DHT22;56915;52.046;4.854;2022-10-17T10:11:22;17.30;99.90
69679;DHT22;56915;52.046;4.854;2022-10-17T10:13:50;17.20;99.90
69679;DHT22;56915;52.046;4.854;2022-10-17T10:16:40;17.20;99.90
69679;DHT22;56915;52.046;4.854;2022-10-17T10:19:23;17.20;99.90
69679;DHT22;56915;52.046;4.854;2022-10-17T10:21:57;17.30;99.90
69679;DHT22;56915;52.046;4.854;2022-10-17T10:24:24;17.30;99.90
69679;DHT22;56915;52.046;4.854;2022-10-17T10:26:59;17.40;99.90
69679;DHT22;56915;52.046;4.854;2022-10-17T10:34:54;17.80;99.90
69679;DHT22;56915;52.046;4.854;2022-10-17T10:37:22;17.90;99.90
69679;DHT22;56915;52.046;4.854;2022-10-17T10:40:06;17.90;99.90
69679;DHT22;56915;52.046;4.854;2022-10-17T10:42:41;17.90;99.90
69679;DHT22;56915;52.046;4.854;2022-10-17T10:48:03;17.60;99.90
69679;DHT22;56915;52.046;4.854;2022-10-17T10:55:28;17.50;99.90
69679;DHT22;56915;52.046;4.854;2022-10-17T10:58:17;17.40;99.90
69679;DHT22;56915;52.046;4.854;2022-10-17T11:00:46;17.40;99.90
69679;DHT22;56915;52.046;4.854;2022-10-17T11:03:32;17.30;99.90
69679;DHT22;56915;52.046;4.854;2022-10-17T11:06:05;17.20;99.90
69679;DHT22;56915;52.046;4.854;2022-10-17T11:08:48;17.10;99.90
69679;DHT22;56915;52.046;4.854;2022-10-17T11:11:29;17.20;99.90
69679;DHT22;56915;52.046;4.854;2022-10-17T11:17:06;17.20;99.90
69679;DHT22;56915;52.046;4.854;2022-10-17T11:19:42;17.20;99.90
69679;DHT22;56915;52.046;4.854;2022-10-17T11:27:15;17.00;99.90
69679;DHT22;56915;52.046;4.854;2022-10-17T11:29:43;16.90;99.90
69679;DHT22;56915;52.046;4.854;2022-10-17T11:32:22;17.00;99.90
69679;DHT22;56915;52.046;4.854;2022-10-17T11:35:06;16.90;99.90
69679;DHT22;56915;52.046;4.854;2022-10-17T11:37:37;16.90;99.90
69679;DHT22;56915;52.046;4.854;2022-10-17T11:40:15;17.00;99.90
69679;DHT22;56915;52.046;4.854;2022-10-17T11:43:27;17.10;99.90
69679;DHT22;56915;52.046;4.854;2022-10-17T11:46:03;17.20;99.90
69679;DHT22;56915;52.046;4.854;2022-10-17T11:48:35;17.30;99.90
69679;DHT22;56915;52.046;4.854;2022-10-17T11:51:09;17.40;99.90
69679;DHT22;56915;52.046;4.854;2022-10-17T11:59:51;17.40;99.90
69679;DHT22;56915;52.046;4.854;2022-10-17T12:07:54;17.30;99.90
69679;DHT22;56915;52.046;4.854;2022-10-17T12:18:45;17.30;99.90
69679;DHT22;56915;52.046;4.854;2022-10-17T12:21:12;17.40;99.90
69679;DHT22;56915;52.046;4.854;2022-10-17T12:23:39;17.50;99.90
69679;DHT22;56915;52.046;4.854;2022-10-17T12:26:08;17.70;99.90
69679;DHT22;56915;52.046;4.854;2022-10-17T12:46:48;18.50;99.90
69679;DHT22;56915;52.046;4.854;2022-10-17T12:52:24;18.70;99.90
69679;DHT22;56915;52.046;4.854;2022-10-17T12:55:23;18.70;99.90
69679;DHT22;56915;52.046;4.854;2022-10-17T13:03:17;19.00;99.90
69679;DHT22;56915;52.046;4.854;2022-10-17T13:05:54;19.00;99.90
69679;DHT22;56915;52.046;4.854;2022-10-17T13:08:28;19.10;99.90
69679;DHT22;56915;52.046;4.854;2022-10-17T13:11:00;19.20;99.90
69679;DHT22;56915;52.046;4.854;2022-10-17T13:13:37;19.20;99.90
69679;DHT22;56915;52.046;4.854;2022-10-17T13:16:07;19.20;99.90
69679;DHT22;56915;52.046;4.854;2022-10-17T13:18:34;19.20;99.90
69679;DHT22;56915;52.046;4.854;2022-10-17T13:21:03;19.20;99.90
69679;DHT22;56915;52.046;4.854;2022-10-17T13:23:33;19.20;99.90
69679;DHT22;56915;52.046;4.854;2022-10-17T13:26:15;19.00;99.90
69679;DHT22;56915;52.046;4.854;2022-10-17T13:28:59;19.00;99.90
69679;DHT22;56915;52.046;4.854;2022-10-17T13:31:36;18.80;99.90
69679;DHT22;56915;52.046;4.854;2022-10-17T13:34:12;18.60;99.90
69679;DHT22;56915;52.046;4.854;2022-10-17T13:36:41;18.50;99.90
69679;DHT22;56915;52.046;4.854;2022-10-17T13:39:17;18.50;99.90
69679;DHT22;56915;52.046;4.854;2022-10-17T13:41:57;18.50;99.90
69679;DHT22;56915;52.046;4.854;2022-10-17T13:44:27;18.60;99.90
69679;DHT22;56915;52.046;4.854;2022-10-17T13:46:57;18.60;99.90
69679;DHT22;56915;52.046;4.854;2022-10-17T13:49:31;18.70;99.90
69679;DHT22;56915;52.046;4.854;2022-10-17T13:52:01;18.70;99.90
69679;DHT22;56915;52.046;4.854;2022-10-17T13:54:43;18.80;99.90
69679;DHT22;56915;52.046;4.854;2022-10-17T13:57:21;18.80;99.90
69679;DHT22;56915;52.046;4.854;2022-10-17T13:59:53;18.90;99.90
69679;DHT22;56915;52.046;4.854;2022-10-17T14:02:24;18.90;99.90
69679;DHT22;56915;52.046;4.854;2022-10-17T14:05:13;19.00;99.90
69679;DHT22;56915;52.046;4.854;2022-10-17T14:07:52;19.10;99.90
69679;DHT22;56915;52.046;4.854;2022-10-17T14:10:41;19.10;99.90
69679;DHT22;56915;52.046;4.854;2022-10-17T14:13:24;19.30;99.90
69679;DHT22;56915;52.046;4.854;2022-10-17T14:15:53;19.40;99.90
69679;DHT22;56915;52.046;4.854;2022-10-17T14:18:24;19.50;99.90
69679;DHT22;56915;52.046;4.854;2022-10-17T14:20:52;19.70;99.90
69679;DHT22;56915;52.046;4.854;2022-10-17T14:23:43;19.90;99.90
69679;DHT22;56915;52.046;4.854;2022-10-17T14:26:16;19.90;99.90
69679;DHT22;56915;52.046;4.854;2022-10-17T14:29:20;20.00;99.90
69679;DHT22;56915;52.046;4.854;2022-10-17T14:31:47;20.00;99.90
69679;DHT22;56915;52.046;4.854;2022-10-17T14:34:25;19.90;99.90
69679;DHT22;56915;52.046;4.854;2022-10-17T14:36:53;19.70;99.90
69679;DHT22;56915;52.046;4.854;2022-10-17T14:39:22;19.40;99.90
69679;DHT22;56915;52.046;4.854;2022-10-17T14:41:50;19.30;99.90
69679;DHT22;56915;52.046;4.854;2022-10-17T14:47:04;19.00;99.90
69679;DHT22;56915;52.046;4.854;2022-10-17T14:52:38;18.90;99.90
69679;DHT22;56915;52.046;4.854;2022-10-17T14:55:26;18.90;99.90
69679;DHT22;56915;52.046;4.854;2022-10-17T14:57:53;18.90;99.90
69679;DHT22;56915;52.046;4.854;2022-10-17T15:00:22;18.80;99.90
69679;DHT22;56915;52.046;4.854;2022-10-17T15:02:53;18.80;99.90
69679;DHT22;56915;52.046;4.854;2022-10-17T15:05:21;18.90;99.90
69679;DHT22;56915;52.046;4.854;2022-10-17T15:07:48;18.90;99.90
69679;DHT22;56915;52.046;4.854;2022-10-17T15:10:35;19.00;99.90
69679;DHT22;56915;52.046;4.854;2022-10-17T15:13:03;18.90;99.90
69679;DHT22;56915;52.046;4.854;2022-10-17T15:15:50;18.90;99.90
69679;DHT22;56915;52.046;4.854;2022-10-17T15:18:18;18.80;99.90
69679;DHT22;56915;52.046;4.854;2022-10-17T15:20:45;18.80;99.90
69679;DHT22;56915;52.046;4.854;2022-10-17T15:23:11;18.70;99.90
69679;DHT22;56915;52.046;4.854;2022-10-17T15:25:38;18.60;99.90
69679;DHT22;56915;52.046;4.854;2022-10-17T15:28:05;18.60;99.90
69679;DHT22;56915;52.046;4.854;2022-10-17T15:30:38;18.40;99.90
69679;DHT22;56915;52.046;4.854;2022-10-17T15:33:04;18.40;99.90
69679;DHT22;56915;52.046;4.854;2022-10-17T15:35:31;18.30;99.90
69679;DHT22;56915;52.046;4.854;2022-10-17T15:37:58;18.20;99.90
69679;DHT22;56915;52.046;4.854;2022-10-17T15:40:26;18.10;99.90
69679;DHT22;56915;52.046;4.854;2022-10-17T15:42:54;18.00;99.90
69679;DHT22;56915;52.046;4.854;2022-10-17T15:45:22;17.90;99.90
69679;DHT22;56915;52.046;4.854;2022-10-17T15:47:58;17.80;99.90
69679;DHT22;56915;52.046;4.854;2022-10-17T15:50:25;17.70;99.90
69679;DHT22;56915;52.046;4.854;2022-10-17T15:52:54;17.60;99.90
69679;DHT22;56915;52.046;4.854;2022-10-17T15:55:21;17.50;99.90
69679;DHT22;56915;52.046;4.854;2022-10-17T15:57:48;17.40;99.90
69679;DHT22;56915;52.046;4.854;2022-10-17T16:00:20;17.40;99.90
69679;DHT22;56915;52.046;4.854;2022-10-17T16:02:48;17.30;99.90
69679;DHT22;56915;52.046;4.854;2022-10-17T16:05:20;17.30;99.90
69679;DHT22;56915;52.046;4.854;2022-10-17T16:07:55;17.30;99.90
69679;DHT22;56915;52.046;4.854;2022-10-17T16:10:23;17.20;99.90
69679;DHT22;56915;52.046;4.854;2022-10-17T16:12:51;17.10;99.90
69679;DHT22;56915;52.046;4.854;2022-10-17T16:15:23;17.00;99.90
69679;DHT22;56915;52.046;4.854;2022-10-17T16:17:51;17.00;99.90
69679;DHT22;56915;52.046;4.854;2022-10-17T16:20:19;16.90;99.90
69679;DHT22;56915;52.046;4.854;2022-10-17T16:22:47;16.80;99.90
69679;DHT22;56915;52.046;4.854;2022-10-17T16:25:22;16.80;99.90
69679;DHT22;56915;52.046;4.854;2022-10-17T16:27:51;16.70;99.90
69679;DHT22;56915;52.046;4.854;2022-10-17T16:30:19;16.60;99.90
69679;DHT22;56915;52.046;4.854;2022-10-17T16:32:52;16.50;99.90
69679;DHT22;56915;52.046;4.854;2022-10-17T16:35:22;16.40;99.90
69679;DHT22;56915;52.046;4.854;2022-10-17T16:37:49;16.40;99.90
69679;DHT22;56915;52.046;4.854;2022-10-17T16:40:16;16.30;99.90
69679;DHT22;56915;52.046;4.854;2022-10-17T16:42:43;16.20;99.90
69679;DHT22;56915;52.046;4.854;2022-10-17T16:45:18;16.10;99.90
69679;DHT22;56915;52.046;4.854;2022-10-17T16:47:45;16.10;99.90
69679;DHT22;56915;52.046;4.854;2022-10-17T16:50:13;16.00;99.90
69679;DHT22;56915;52.046;4.854;2022-10-17T16:52:40;16.00;99.90
69679;DHT22;56915;52.046;4.854;2022-10-17T16:55:08;15.90;99.90
69679;DHT22;56915;52.046;4.854;2022-10-17T16:57:35;15.90;99.90
69679;DHT22;56915;52.046;4.854;2022-10-17T17:00:04;15.80;99.90
69679;DHT22;56915;52.046;4.854;2022-10-17T17:02:31;15.80;99.90
69679;DHT22;56915;52.046;4.854;2022-10-17T17:05:04;15.80;99.90
69679;DHT22;56915;52.046;4.854;2022-10-17T17:07:31;15.70;99.90
69679;DHT22;56915;52.046;4.854;2022-10-17T17:09:59;15.70;99.90
69679;DHT22;56915;52.046;4.854;2022-10-17T17:12:25;15.70;99.90
69679;DHT22;56915;52.046;4.854;2022-10-17T17:14:52;15.60;99.90
69679;DHT22;56915;52.046;4.854;2022-10-17T17:17:19;15.60;99.90
69679;DHT22;56915;52.046;4.854;2022-10-17T17:20:03;15.50;99.90
69679;DHT22;56915;52.046;4.854;2022-10-17T17:22:29;15.50;99.90
69679;DHT22;56915;52.046;4.854;2022-10-17T17:24:56;15.50;99.90
69679;DHT22;56915;52.046;4.854;2022-10-17T17:27:25;15.50;99.90
69679;DHT22;56915;52.046;4.854;2022-10-17T17:29:52;15.50;99.90
69679;DHT22;56915;52.046;4.854;2022-10-17T17:32:19;15.40;99.90
69679;DHT22;56915;52.046;4.854;2022-10-17T17:34:45;15.40;99.90
69679;DHT22;56915;52.046;4.854;2022-10-17T17:37:12;15.30;99.90
69679;DHT22;56915;52.046;4.854;2022-10-17T17:39:42;15.30;99.90
69679;DHT22;56915;52.046;4.854;2022-10-17T17:42:09;15.30;99.90
69679;DHT22;56915;52.046;4.854;2022-10-17T17:44:35;15.30;99.90
69679;DHT22;56915;52.046;4.854;2022-10-17T17:47:02;15.20;99.90
69679;DHT22;56915;52.046;4.854;2022-10-17T17:49:29;15.20;99.90
69679;DHT22;56915;52.046;4.854;2022-10-17T17:52:03;15.20;99.90
69679;DHT22;56915;52.046;4.854;2022-10-17T17:54:30;15.10;99.90
69679;DHT22;56915;52.046;4.854;2022-10-17T17:56:57;15.10;99.90